Time;durP1;ratioP1;P1;durP2;ratioP2;P2;SDS_P1;SDS_P2;PMS_P1;PMS_P2;Temp;Humidity;BMP_temperature;BMP_pressure;BME280_temperature;BME280_humidity;BME280_pressure;Samples;Min_cycle;Max_cycle;Signal;HPM_P1;HPM_P2
2021/08/21 00:00:58;;;;;;;7.55;6.88;;;;;;;;;;5093089;28;20024;-75
2021/08/21 00:03:24;;;;;;;9.18;7.85;;;;;;;;;;5092866;28;20024;-74
2021/08/21 00:05:50;;;;;;;12.85;7.78;;;;;;;;;;5093421;28;20497;-75
2021/08/21 00:08:16;;;;;;;13.23;7.28;;;;;;;;;;5093277;28;20526;-75
2021/08/21 00:10:42;;;;;;;9.57;7.03;;;;;;;;;;5094818;28;20421;-75
2021/08/21 00:13:08;;;;;;;45.17;10.85;;;;;;;;;;5096590;28;20389;-75
2021/08/21 00:15:34;;;;;;;20.95;7.90;;;;;;;;;;5096640;28;20020;-75
2021/08/21 00:18:01;;;;;;;8.98;7.93;;;;;;;;;;5096683;28;20028;-74
2021/08/21 00:20:27;;;;;;;11.18;8.63;;;;;;;;;;5096795;28;20024;-75
2021/08/21 00:22:53;;;;;;;17.55;7.30;;;;;;;;;;5096857;28;20024;-75
2021/08/21 00:25:19;;;;;;;11.50;7.57;;;;;;;;;;5096463;28;20017;-75
2021/08/21 00:27:45;;;;;;;23.08;8.15;;;;;;;;;;5096579;28;20534;-75
2021/08/21 00:30:11;;;;;;;14.80;7.28;;;;;;;;;;5096531;28;20030;-76
2021/08/21 00:32:38;;;;;;;17.30;6.32;;;;;;;;;;5096446;28;20123;-75
2021/08/21 00:35:04;;;;;;;9.35;6.50;;;;;;;;;;5096328;28;20455;-75
2021/08/21 00:37:30;;;;;;;13.15;6.93;;;;;;;;;;5096085;28;20040;-75
2021/08/21 00:39:56;;;;;;;7.78;6.22;;;;;;;;;;5096318;28;20449;-75
2021/08/21 00:42:23;;;;;;;12.32;7.47;;;;;;;;;;5096076;28;20156;-75
2021/08/21 00:44:49;;;;;;;10.95;6.60;;;;;;;;;;5096146;28;20549;-75
2021/08/21 00:47:15;;;;;;;13.40;7.93;;;;;;;;;;5095594;28;20469;-75
2021/08/21 00:49:42;;;;;;;13.75;7.50;;;;;;;;;;5096749;28;20373;-75
2021/08/21 00:52:10;;;;;;;40.42;9.70;;;;;;;;;;5096627;28;20058;-75
2021/08/21 00:54:36;;;;;;;36.75;9.52;;;;;;;;;;5096579;28;20035;-75
2021/08/21 00:57:02;;;;;;;18.10;7.00;;;;;;;;;;5096127;28;20136;-75
2021/08/21 00:59:30;;;;;;;28.58;8.40;;;;;;;;;;5095583;28;20428;-75
2021/08/21 01:01:56;;;;;;;7.38;6.60;;;;;;;;;;5095518;28;20065;-75
2021/08/21 01:04:22;;;;;;;7.43;6.63;;;;;;;;;;5096029;28;20444;-75
2021/08/21 01:06:48;;;;;;;8.35;7.55;;;;;;;;;;5095971;28;20028;-75
2021/08/21 01:09:14;;;;;;;7.68;6.85;;;;;;;;;;5095783;28;20028;-75
2021/08/21 01:11:40;;;;;;;8.55;7.40;;;;;;;;;;5095865;28;20031;-75
2021/08/21 01:14:06;;;;;;;8.43;7.63;;;;;;;;;;5095627;28;20366;-75
2021/08/21 01:16:32;;;;;;;7.63;6.93;;;;;;;;;;5095184;28;20055;-75
2021/08/21 01:18:59;;;;;;;9.77;7.30;;;;;;;;;;5095893;28;20176;-75
2021/08/21 01:21:25;;;;;;;9.25;6.78;;;;;;;;;;5095167;28;20024;-75
2021/08/21 01:23:51;;;;;;;8.55;7.05;;;;;;;;;;5095074;28;20044;-74
2021/08/21 01:26:17;;;;;;;8.48;6.95;;;;;;;;;;5095516;28;20074;-75
2021/08/21 01:28:43;;;;;;;8.60;7.70;;;;;;;;;;5095383;28;20024;-74
2021/08/21 01:31:09;;;;;;;8.90;8.00;;;;;;;;;;5095054;28;20107;-75
2021/08/21 01:33:36;;;;;;;8.57;7.75;;;;;;;;;;5095424;28;20366;-75
2021/08/21 01:36:02;;;;;;;15.25;6.82;;;;;;;;;;5095882;28;20022;-75
2021/08/21 01:38:28;;;;;;;9.50;7.47;;;;;;;;;;5095511;28;20048;-74
2021/08/21 01:40:54;;;;;;;7.93;7.15;;;;;;;;;;5095181;28;20052;-74
2021/08/21 01:43:20;;;;;;;9.00;6.70;;;;;;;;;;5095082;28;20081;-75
2021/08/21 01:45:46;;;;;;;8.02;6.60;;;;;;;;;;5094914;28;20016;-75
2021/08/21 01:48:13;;;;;;;8.30;7.45;;;;;;;;;;5095141;28;20514;-74
2021/08/21 01:50:39;;;;;;;8.20;6.63;;;;;;;;;;5095161;28;20111;-74
2021/08/21 01:53:09;;;;;;;8.50;6.55;;;;;;;;;;5094879;28;20043;-74
2021/08/21 01:55:35;;;;;;;10.13;6.97;;;;;;;;;;5095140;28;20048;-75
2021/08/21 01:58:01;;;;;;;8.15;7.15;;;;;;;;;;5094934;28;20068;-74
2021/08/21 02:00:28;;;;;;;8.05;6.57;;;;;;;;;;5094406;28;20381;-75
2021/08/21 02:02:55;;;;;;;10.88;7.18;;;;;;;;;;5094922;28;20475;-74
2021/08/21 02:05:21;;;;;;;9.80;6.80;;;;;;;;;;5094451;28;20024;-75
2021/08/21 02:07:47;;;;;;;9.95;6.63;;;;;;;;;;5095018;28;20028;-75
2021/08/21 02:10:13;;;;;;;14.32;6.53;;;;;;;;;;5094593;28;20572;-75
2021/08/21 02:12:39;;;;;;;10.02;7.25;;;;;;;;;;5094584;28;20089;-75
2021/08/21 02:15:07;;;;;;;9.20;7.28;;;;;;;;;;5094168;28;20054;-75
2021/08/21 02:17:33;;;;;;;8.70;6.03;;;;;;;;;;5094662;28;20040;-75
2021/08/21 02:19:59;;;;;;;7.45;6.65;;;;;;;;;;5094221;28;20373;-75
2021/08/21 02:22:25;;;;;;;7.47;5.68;;;;;;;;;;5094732;28;20036;-75
2021/08/21 02:24:52;;;;;;;7.65;6.70;;;;;;;;;;5094515;28;20024;-75
2021/08/21 02:27:22;;;;;;;9.77;6.63;;;;;;;;;;5093918;28;20107;-75
2021/08/21 02:29:48;;;;;;;7.43;6.45;;;;;;;;;;5093943;28;20024;-75
2021/08/21 02:32:14;;;;;;;9.05;7.00;;;;;;;;;;5094187;28;20052;-75
2021/08/21 02:34:40;;;;;;;7.28;5.80;;;;;;;;;;5093275;28;20515;-75
2021/08/21 02:37:06;;;;;;;7.22;5.93;;;;;;;;;;5094089;28;20468;-75
2021/08/21 02:39:32;;;;;;;6.90;6.20;;;;;;;;;;5093857;28;20105;-75
2021/08/21 02:41:59;;;;;;;6.18;5.57;;;;;;;;;;5093850;28;20061;-75
2021/08/21 02:44:25;;;;;;;8.55;5.53;;;;;;;;;;5093782;28;20028;-75
2021/08/21 02:46:51;;;;;;;8.85;5.80;;;;;;;;;;5094054;28;20047;-74
2021/08/21 02:49:17;;;;;;;6.65;5.63;;;;;;;;;;5093665;28;20020;-74
2021/08/21 02:51:43;;;;;;;9.98;5.95;;;;;;;;;;5093833;28;20485;-75
2021/08/21 02:54:09;;;;;;;29.33;7.32;;;;;;;;;;5093860;28;20462;-75
2021/08/21 02:56:35;;;;;;;12.77;6.97;;;;;;;;;;5093886;28;20127;-75
2021/08/21 02:59:01;;;;;;;10.18;6.47;;;;;;;;;;5093750;28;20031;-74
2021/08/21 03:01:27;;;;;;;9.38;7.47;;;;;;;;;;5093582;28;20024;-74
2021/08/21 03:03:53;;;;;;;9.23;6.65;;;;;;;;;;5094083;28;20032;-74
2021/08/21 03:06:19;;;;;;;6.20;5.57;;;;;;;;;;5093952;28;20138;-74
2021/08/21 03:08:46;;;;;;;8.45;6.40;;;;;;;;;;5093756;28;20025;-74
2021/08/21 03:11:12;;;;;;;7.05;6.40;;;;;;;;;;5093590;28;20136;-75
2021/08/21 03:13:41;;;;;;;7.28;5.70;;;;;;;;;;5093315;28;20028;-74
2021/08/21 03:16:07;;;;;;;6.80;6.15;;;;;;;;;;5093614;28;20101;-75
2021/08/21 03:18:33;;;;;;;10.43;6.63;;;;;;;;;;5093304;28;20568;-74
2021/08/21 03:20:59;;;;;;;7.00;5.90;;;;;;;;;;5093519;28;20477;-74
2021/08/21 03:23:25;;;;;;;7.57;6.57;;;;;;;;;;5093208;28;20381;-75
2021/08/21 03:25:51;;;;;;;6.10;5.60;;;;;;;;;;5093476;28;20425;-74
2021/08/21 03:28:17;;;;;;;9.40;7.93;;;;;;;;;;5093130;28;20024;-74
2021/08/21 03:30:43;;;;;;;9.60;7.95;;;;;;;;;;5093509;28;20051;-75
2021/08/21 03:33:09;;;;;;;14.15;7.22;;;;;;;;;;5093243;28;20461;-75
2021/08/21 03:35:35;;;;;;;8.48;7.53;;;;;;;;;;5093902;28;20104;-75
2021/08/21 03:38:02;;;;;;;7.93;7.13;;;;;;;;;;5093265;28;20046;-75
2021/08/21 03:40:28;;;;;;;19.83;6.72;;;;;;;;;;5093196;28;20133;-75
2021/08/21 03:42:54;;;;;;;8.68;6.72;;;;;;;;;;5093084;28;20024;-74
2021/08/21 03:45:20;;;;;;;16.58;7.20;;;;;;;;;;5094158;28;20035;-75
2021/08/21 03:47:47;;;;;;;7.57;6.85;;;;;;;;;;5097431;28;20024;-75
2021/08/21 03:50:13;;;;;;;10.25;6.75;;;;;;;;;;5097427;28;20028;-75
2021/08/21 03:52:39;;;;;;;13.82;6.95;;;;;;;;;;5097373;28;20020;-75
2021/08/21 03:55:06;;;;;;;8.82;7.35;;;;;;;;;;5097206;28;20055;-75
2021/08/21 03:57:32;;;;;;;12.75;7.70;;;;;;;;;;5096855;28;20028;-75
2021/08/21 03:59:58;;;;;;;8.18;6.43;;;;;;;;;;5097162;28;20078;-75
2021/08/21 04:02:24;;;;;;;6.60;6.00;;;;;;;;;;5097138;28;20039;-75
2021/08/21 04:04:50;;;;;;;8.88;6.53;;;;;;;;;;5097237;28;20074;-75
2021/08/21 04:07:16;;;;;;;6.63;5.97;;;;;;;;;;5096535;28;20473;-74
2021/08/21 04:09:42;;;;;;;8.07;6.95;;;;;;;;;;5096933;28;20031;-74
2021/08/21 04:12:09;;;;;;;6.72;6.05;;;;;;;;;;5096914;28;20064;-74
2021/08/21 04:14:35;;;;;;;6.10;5.50;;;;;;;;;;5097249;28;20024;-74
2021/08/21 04:17:01;;;;;;;10.75;6.00;;;;;;;;;;5096890;28;20040;-73
2021/08/21 04:19:27;;;;;;;8.25;6.25;;;;;;;;;;5096587;28;20035;-74
2021/08/21 04:21:53;;;;;;;6.60;5.85;;;;;;;;;;5096757;28;20024;-74
2021/08/21 04:24:19;;;;;;;7.43;6.30;;;;;;;;;;5096592;28;20051;-73
2021/08/21 04:26:45;;;;;;;10.18;6.55;;;;;;;;;;5096482;28;20020;-75
2021/08/21 04:29:13;;;;;;;7.93;6.22;;;;;;;;;;5096638;28;20056;-74
2021/08/21 04:31:39;;;;;;;9.18;6.00;;;;;;;;;;5097124;28;20032;-74
2021/08/21 04:34:05;;;;;;;9.45;6.72;;;;;;;;;;5096914;28;20039;-74
2021/08/21 04:36:31;;;;;;;7.18;6.03;;;;;;;;;;5096335;28;20036;-74
2021/08/21 04:38:57;;;;;;;6.93;6.22;;;;;;;;;;5096498;28;20031;-75
2021/08/21 04:41:24;;;;;;;9.27;6.10;;;;;;;;;;5096138;28;20031;-74
2021/08/21 04:43:50;;;;;;;6.55;5.63;;;;;;;;;;5096683;28;20055;-74
2021/08/21 04:46:16;;;;;;;9.13;6.00;;;;;;;;;;5096226;28;20099;-74
2021/08/21 04:48:42;;;;;;;7.13;6.05;;;;;;;;;;5096308;28;20041;-75
2021/08/21 04:51:08;;;;;;;9.90;5.93;;;;;;;;;;5095648;28;20504;-75
2021/08/21 04:53:34;;;;;;;9.23;5.85;;;;;;;;;;5096014;28;20039;-74
2021/08/21 04:56:00;;;;;;;7.30;5.50;;;;;;;;;;5095673;28;20131;-74
2021/08/21 04:58:26;;;;;;;7.20;6.30;;;;;;;;;;5095177;28;20047;-74
2021/08/21 05:00:52;;;;;;;5.90;5.28;;;;;;;;;;5096318;28;20081;-74
2021/08/21 05:03:18;;;;;;;6.25;5.65;;;;;;;;;;5095846;28;20032;-74
2021/08/21 05:05:44;;;;;;;8.23;5.22;;;;;;;;;;5095939;28;20020;-74
2021/08/21 05:08:10;;;;;;;5.57;5.07;;;;;;;;;;5095900;28;20024;-74
2021/08/21 05:10:36;;;;;;;10.27;5.80;;;;;;;;;;5095809;28;20070;-75
2021/08/21 05:13:02;;;;;;;6.32;5.13;;;;;;;;;;5096051;28;20031;-74
2021/08/21 05:15:31;;;;;;;6.32;5.72;;;;;;;;;;5095616;28;20104;-74
2021/08/21 05:17:57;;;;;;;6.05;5.32;;;;;;;;;;5096077;28;20036;-74
2021/08/21 05:20:29;;;;;;;8.15;5.07;;;;;;;;;;5092977;28;20028;-73
2021/08/21 05:23:04;;;;;;;10.50;5.57;;;;;;;;;;5094986;28;20469;-72
2021/08/21 05:25:30;;;;;;;6.00;4.95;;;;;;;;;;5095728;28;20024;-71
2021/08/21 05:27:56;;;;;;;6.10;4.45;;;;;;;;;;5095907;28;20031;-73
2021/08/21 05:30:27;;;;;;;11.80;5.00;;;;;;;;;;5095832;28;20024;-71
2021/08/21 05:32:53;;;;;;;5.40;4.90;;;;;;;;;;5094572;28;20028;-74
2021/08/21 05:35:19;;;;;;;6.07;5.45;;;;;;;;;;5095177;28;20077;-73
2021/08/21 05:37:45;;;;;;;6.15;4.85;;;;;;;;;;5095429;28;20157;-72
2021/08/21 05:40:11;;;;;;;8.68;5.05;;;;;;;;;;5095639;28;20050;-73
2021/08/21 05:42:38;;;;;;;5.68;5.10;;;;;;;;;;5093999;28;20038;-73
2021/08/21 05:45:04;;;;;;;12.18;5.75;;;;;;;;;;5095496;28;20074;-71
2021/08/21 05:47:30;;;;;;;5.63;5.03;;;;;;;;;;5095087;28;20028;-72
2021/08/21 05:50:00;;;;;;;7.63;4.93;;;;;;;;;;5095141;28;20020;-74
2021/08/21 05:52:27;;;;;;;5.68;4.85;;;;;;;;;;5091253;28;20032;-73
2021/08/21 05:54:53;;;;;;;4.95;4.55;;;;;;;;;;5095175;28;20422;-73
2021/08/21 05:57:19;;;;;;;5.65;5.15;;;;;;;;;;5095828;28;20378;-73
2021/08/21 05:59:45;;;;;;;6.28;4.82;;;;;;;;;;5094561;28;20099;-74
2021/08/21 06:02:12;;;;;;;4.68;4.20;;;;;;;;;;5093032;28;20028;-74
2021/08/21 06:04:38;;;;;;;8.15;5.30;;;;;;;;;;5095019;28;20481;-74
2021/08/21 06:07:04;;;;;;;10.38;6.18;;;;;;;;;;5094726;28;20485;-73
2021/08/21 06:09:59;;;;;;;5.93;4.20;;;;;;;;;;5096885;28;20046;-74
2021/08/21 06:12:26;;;;;;;7.95;5.30;;;;;;;;;;5094659;28;20031;-74
2021/08/21 06:14:52;;;;;;;8.68;6.88;;;;;;;;;;5093850;28;20024;-75
2021/08/21 06:17:18;;;;;;;8.98;5.78;;;;;;;;;;5089400;28;20032;-78
2021/08/21 06:19:44;;;;;;;6.47;5.40;;;;;;;;;;5093005;28;20016;-77
2021/08/21 06:22:10;;;;;;;9.75;6.38;;;;;;;;;;5091516;28;20066;-76
2021/08/21 06:24:36;;;;;;;16.33;6.25;;;;;;;;;;5093330;28;20059;-76
2021/08/21 06:27:02;;;;;;;15.07;6.38;;;;;;;;;;5093100;28;20085;-76
2021/08/21 06:29:34;;;;;;;7.03;6.07;;;;;;;;;;5092600;28;20016;-76
2021/08/21 06:32:01;;;;;;;8.05;6.35;;;;;;;;;;5092105;28;20032;-76
2021/08/21 06:34:27;;;;;;;11.90;6.40;;;;;;;;;;5092929;28;20020;-77
2021/08/21 06:36:53;;;;;;;8.73;6.95;;;;;;;;;;5093393;28;20432;-75
2021/08/21 06:39:19;;;;;;;28.02;7.43;;;;;;;;;;5092696;28;20026;-75
2021/08/21 06:41:45;;;;;;;12.52;7.35;;;;;;;;;;5092021;28;20024;-75
2021/08/21 06:44:11;;;;;;;17.17;8.02;;;;;;;;;;5093327;28;20106;-75
2021/08/21 06:46:37;;;;;;;9.55;7.15;;;;;;;;;;5093185;28;20028;-78
2021/08/21 06:49:03;;;;;;;8.63;7.15;;;;;;;;;;5093498;28;20031;-76
2021/08/21 06:51:29;;;;;;;11.30;7.32;;;;;;;;;;5093344;28;20377;-76
2021/08/21 06:53:55;;;;;;;7.15;6.45;;;;;;;;;;5094033;28;20032;-76
2021/08/21 06:56:21;;;;;;;10.02;7.28;;;;;;;;;;5093913;28;20393;-76
2021/08/21 06:58:47;;;;;;;7.43;6.60;;;;;;;;;;5093922;28;20032;-76
2021/08/21 07:01:14;;;;;;;7.03;6.10;;;;;;;;;;5093217;28;20021;-75
2021/08/21 07:03:40;;;;;;;7.72;6.90;;;;;;;;;;5093500;28;20435;-75
2021/08/21 07:06:06;;;;;;;8.48;6.20;;;;;;;;;;5093756;28;20032;-75
2021/08/21 07:08:32;;;;;;;8.13;7.32;;;;;;;;;;5093673;28;20024;-76
2021/08/21 07:10:58;;;;;;;7.10;6.40;;;;;;;;;;5093918;28;20028;-79
2021/08/21 07:13:24;;;;;;;8.52;7.72;;;;;;;;;;5093639;28;20146;-81
2021/08/21 07:15:51;;;;;;;10.18;6.70;;;;;;;;;;5094052;28;20074;-81
2021/08/21 07:18:17;;;;;;;7.90;7.07;;;;;;;;;;5094152;28;20115;-81
2021/08/21 07:20:43;;;;;;;9.13;6.10;;;;;;;;;;5093659;28;20024;-80
2021/08/21 07:23:09;;;;;;;10.10;6.80;;;;;;;;;;5094165;28;20469;-82
2021/08/21 07:25:35;;;;;;;6.57;5.95;;;;;;;;;;5092953;28;20047;-75
2021/08/21 07:28:01;;;;;;;10.48;6.93;;;;;;;;;;5089642;28;20077;-73
2021/08/21 07:30:27;;;;;;;7.63;6.68;;;;;;;;;;5093867;28;20032;-86
2021/08/21 07:32:53;;;;;;;11.40;7.75;;;;;;;;;;5095844;28;20028;-80
2021/08/21 07:35:19;;;;;;;9.38;6.72;;;;;;;;;;5095806;28;20485;-84
2021/08/21 07:37:45;;;;;;;7.78;6.45;;;;;;;;;;5095237;28;20077;-83
2021/08/21 07:40:12;;;;;;;7.88;7.18;;;;;;;;;;5094193;28;20024;-81
2021/08/21 07:42:38;;;;;;;9.63;7.00;;;;;;;;;;5096503;28;20077;-84
2021/08/21 07:45:05;;;;;;;8.00;7.20;;;;;;;;;;5095737;28;20035;-83
2021/08/21 07:47:31;;;;;;;7.03;6.35;;;;;;;;;;5093965;28;20101;-78
2021/08/21 07:49:57;;;;;;;7.70;7.00;;;;;;;;;;5094735;28;20024;-84
2021/08/21 07:52:23;;;;;;;6.82;6.13;;;;;;;;;;5097127;28;20058;-87
2021/08/21 07:54:50;;;;;;;8.07;7.28;;;;;;;;;;5094479;28;20477;-80
2021/08/21 07:57:16;;;;;;;7.43;6.57;;;;;;;;;;5094983;28;20028;-78
2021/08/21 07:59:42;;;;;;;6.43;5.63;;;;;;;;;;5095646;28;20024;-83
2021/08/21 08:02:09;;;;;;;5.93;5.32;;;;;;;;;;5096046;28;20047;-82
2021/08/21 08:04:35;;;;;;;46.67;37.70;;;;;;;;;;5096097;28;20633;-83
2021/08/21 08:07:01;;;;;;;10.05;8.77;;;;;;;;;;5095880;28;20089;-86
2021/08/21 08:09:28;;;;;;;7.47;6.72;;;;;;;;;;5095573;28;20035;-85
2021/08/21 08:11:55;;;;;;;5.57;4.97;;;;;;;;;;5095086;28;20028;-85
2021/08/21 08:14:21;;;;;;;8.25;7.45;;;;;;;;;;5095566;28;20158;-88
2021/08/21 08:16:48;;;;;;;5.60;5.10;;;;;;;;;;5095218;28;20028;-83
2021/08/21 08:19:14;;;;;;;9.48;7.28;;;;;;;;;;5096499;28;20024;-84
2021/08/21 08:21:40;;;;;;;8.20;6.72;;;;;;;;;;5093714;28;20050;-85
2021/08/21 08:24:06;;;;;;;9.02;6.63;;;;;;;;;;5095169;28;20492;-77
2021/08/21 08:26:32;;;;;;;8.50;5.60;;;;;;;;;;5095955;28;20053;-79
2021/08/21 08:28:58;;;;;;;8.52;6.43;;;;;;;;;;5094843;28;20051;-82
2021/08/21 08:31:24;;;;;;;12.50;7.15;;;;;;;;;;5094387;28;20024;-81
2021/08/21 08:33:50;;;;;;;6.78;6.07;;;;;;;;;;5095583;28;20478;-79
2021/08/21 08:36:16;;;;;;;6.90;6.15;;;;;;;;;;5095677;28;20461;-84
2021/08/21 08:38:42;;;;;;;14.10;7.20;;;;;;;;;;5096376;28;20498;-79
2021/08/21 08:41:10;;;;;;;8.98;6.70;;;;;;;;;;5095364;28;20028;-89
2021/08/21 08:43:36;;;;;;;8.50;6.72;;;;;;;;;;5097295;28;20028;-78
2021/08/21 08:46:02;;;;;;;7.47;6.70;;;;;;;;;;5099077;28;20065;-80
2021/08/21 08:48:29;;;;;;;8.18;5.70;;;;;;;;;;5096274;28;20088;-84
2021/08/21 08:50:55;;;;;;;10.55;6.85;;;;;;;;;;5097218;28;20020;-84
2021/08/21 08:53:21;;;;;;;9.38;6.78;;;;;;;;;;5097019;28;20065;-82
2021/08/21 08:55:47;;;;;;;11.20;6.32;;;;;;;;;;5097505;28;20138;-85
2021/08/21 08:58:14;;;;;;;7.32;6.38;;;;;;;;;;5096414;28;20032;-85
2021/08/21 09:00:40;;;;;;;6.20;5.57;;;;;;;;;;5097520;28;20039;-86
2021/08/21 09:03:07;;;;;;;6.85;5.40;;;;;;;;;;5097508;28;20055;-80
2021/08/21 09:05:37;;;;;;;11.13;6.72;;;;;;;;;;5096523;28;20016;-79
2021/08/21 09:08:04;;;;;;;;;;;;;;;;;;5096774;28;20024;-80
2021/08/21 09:10:31;;;;;;;10.77;8.35;;;;;;;;;;5097138;28;19926;-86
2021/08/21 09:13:13;;;;;;;11.43;8.25;;;;;;;;;;5097081;28;20028;-85
2021/08/21 09:15:40;;;;;;;12.00;6.68;;;;;;;;;;5094551;28;20024;-88
2021/08/21 09:18:10;;;;;;;10.43;7.38;;;;;;;;;;5097309;28;20066;-88
2021/08/21 09:20:56;;;;;;;8.23;7.43;;;;;;;;;;5097496;28;20346;-81
2021/08/21 09:23:25;;;;;;;10.60;7.18;;;;;;;;;;5095812;28;20028;-86
2021/08/21 09:26:13;;;;;;;10.30;6.65;;;;;;;;;;5095568;28;20028;-88
2021/08/21 09:28:39;;;;;;;9.10;7.20;;;;;;;;;;5097988;28;20021;-89
2021/08/21 09:31:07;;;;;;;11.15;6.60;;;;;;;;;;5096567;28;20058;-84
2021/08/21 09:33:34;;;;;;;12.32;6.95;;;;;;;;;;5093296;28;20035;-83
2021/08/21 09:36:00;;;;;;;7.38;6.05;;;;;;;;;;5096137;28;20024;-77
2021/08/21 09:38:28;;;;;;;7.65;6.05;;;;;;;;;;5095701;28;20405;-88
2021/08/21 09:40:58;;;;;;;9.80;7.03;;;;;;;;;;5095790;28;20024;-79
2021/08/21 09:43:27;;;;;;;7.63;6.82;;;;;;;;;;5091666;28;20020;-83
2021/08/21 09:46:06;;;;;;;8.75;6.60;;;;;;;;;;5094871;28;20505;-79
2021/08/21 09:48:32;;;;;;;7.82;6.93;;;;;;;;;;5095867;28;20024;-78
2021/08/21 09:50:58;;;;;;;7.85;6.72;;;;;;;;;;5095978;28;20035;-80
2021/08/21 09:53:24;;;;;;;7.13;6.53;;;;;;;;;;5095592;28;20568;-83
2021/08/21 09:55:50;;;;;;;7.40;6.13;;;;;;;;;;5093971;28;20485;-82
2021/08/21 09:58:17;;;;;;;12.77;7.03;;;;;;;;;;5091697;28;20032;-76
2021/08/21 10:00:44;;;;;;;7.35;6.65;;;;;;;;;;5095122;28;20020;-79
2021/08/21 10:03:10;;;;;;;7.07;6.38;;;;;;;;;;5095618;28;20024;-82
2021/08/21 10:05:36;;;;;;;7.18;6.57;;;;;;;;;;5095279;28;20020;-76
2021/08/21 10:08:09;;;;;;;19.95;7.22;;;;;;;;;;5094264;28;20031;-76
2021/08/21 10:10:36;;;;;;;11.13;6.90;;;;;;;;;;5094767;28;20032;-76
2021/08/21 10:13:18;;;;;;;8.52;6.85;;;;;;;;;;5095013;28;20085;-76
2021/08/21 10:15:44;;;;;;;13.55;8.50;;;;;;;;;;5094842;28;20060;-74
2021/08/21 10:18:10;;;;;;;13.88;7.88;;;;;;;;;;5093203;28;20040;-75
2021/08/21 10:20:36;;;;;;;10.00;9.05;;;;;;;;;;5094348;28;20026;-76
2021/08/21 10:23:07;;;;;;;10.20;9.20;;;;;;;;;;5091593;28;20028;-78
2021/08/21 10:25:33;;;;;;;12.25;9.32;;;;;;;;;;5094296;28;20103;-77
2021/08/21 10:27:59;;;;;;;9.45;7.72;;;;;;;;;;5093981;28;20496;-75
2021/08/21 10:30:38;;;;;;;9.00;8.20;;;;;;;;;;5090532;28;20153;-73
2021/08/21 10:33:04;;;;;;;10.13;9.05;;;;;;;;;;5094443;28;20486;-73
2021/08/21 10:35:50;;;;;;;9.70;8.70;;;;;;;;;;5094387;28;20024;-75
2021/08/21 10:38:35;;;;;;;12.95;8.40;;;;;;;;;;5093602;28;20043;-76
2021/08/21 10:41:02;;;;;;;7.18;6.53;;;;;;;;;;5093936;28;20027;-75
2021/08/21 10:43:43;;;;;;;6.95;6.35;;;;;;;;;;5093609;28;20473;-75
2021/08/21 10:46:10;;;;;;;6.20;5.60;;;;;;;;;;5094307;28;20067;-75
2021/08/21 10:48:53;;;;;;;8.15;6.15;;;;;;;;;;5094197;28;20047;-75
2021/08/21 10:51:39;;;;;;;6.95;5.97;;;;;;;;;;5093550;28;20032;-75
2021/08/21 10:54:25;;;;;;;8.18;6.75;;;;;;;;;;5093093;28;20107;-75
2021/08/21 10:56:51;;;;;;;8.77;6.63;;;;;;;;;;5088712;28;20098;-73
2021/08/21 10:59:37;;;;;;;7.75;5.60;;;;;;;;;;5093181;28;20027;-76
2021/08/21 11:02:23;;;;;;;8.38;6.05;;;;;;;;;;5092824;28;20036;-76
2021/08/21 11:04:49;;;;;;;15.15;7.07;;;;;;;;;;5092271;28;20437;-77
2021/08/21 11:07:35;;;;;;;6.70;5.32;;;;;;;;;;5093263;28;20031;-77
2021/08/21 11:10:21;;;;;;;10.93;6.70;;;;;;;;;;5087538;28;20023;-85
2021/08/21 11:12:49;;;;;;;7.97;5.18;;;;;;;;;;5092579;28;20028;-83
2021/08/21 11:15:16;;;;;;;6.70;5.45;;;;;;;;;;5093267;28;20027;-82
2021/08/21 11:17:42;;;;;;;7.40;4.88;;;;;;;;;;5093565;28;20032;-80
2021/08/21 11:20:23;;;;;;;6.05;4.90;;;;;;;;;;5092451;28;20115;-76
2021/08/21 11:23:09;;;;;;;5.55;5.05;;;;;;;;;;5093343;28;20408;-84
2021/08/21 11:25:39;;;;;;;7.53;5.72;;;;;;;;;;5092117;28;20036;-84
2021/08/21 11:28:06;;;;;;;8.50;4.82;;;;;;;;;;5093211;28;20039;-81
2021/08/21 11:30:33;;;;;;;6.63;4.20;;;;;;;;;;5091825;28;20469;-80
2021/08/21 11:33:00;;;;;;;5.10;4.50;;;;;;;;;;5093023;28;20063;-81
2021/08/21 11:35:47;;;;;;;5.20;4.72;;;;;;;;;;5092947;28;20020;-80
2021/08/21 11:38:14;;;;;;;13.07;5.22;;;;;;;;;;5093437;28;20036;-79
2021/08/21 11:40:45;;;;;;;5.13;4.63;;;;;;;;;;5093339;28;20024;-81
2021/08/21 11:43:12;;;;;;;6.07;4.75;;;;;;;;;;5093535;28;20389;-82
2021/08/21 11:45:38;;;;;;;5.57;5.07;;;;;;;;;;5093690;28;20024;-80
2021/08/21 11:48:05;;;;;;;6.53;4.85;;;;;;;;;;5093088;28;20070;-84
2021/08/21 11:50:33;;;;;;;8.30;5.40;;;;;;;;;;5091656;28;20074;-78
2021/08/21 11:53:00;;;;;;;6.25;5.28;;;;;;;;;;5094141;28;20055;-82
2021/08/21 11:55:26;;;;;;;7.60;5.35;;;;;;;;;;5093221;28;20061;-84
2021/08/21 11:57:52;;;;;;;5.13;4.72;;;;;;;;;;5093597;28;20036;-82
2021/08/21 12:00:20;;;;;;;6.97;5.80;;;;;;;;;;5092154;28;20046;-79
2021/08/21 12:02:48;;;;;;;7.55;5.35;;;;;;;;;;5093495;28;20020;-83
2021/08/21 12:05:14;;;;;;;8.98;6.32;;;;;;;;;;5093966;28;20031;-83
2021/08/21 12:07:40;;;;;;;7.57;5.65;;;;;;;;;;5096496;28;20016;-82
2021/08/21 12:10:06;;;;;;;5.32;4.80;;;;;;;;;;5095491;28;20028;-77
2021/08/21 12:12:33;;;;;;;12.48;4.97;;;;;;;;;;5096940;28;20073;-82
2021/08/21 12:14:59;;;;;;;7.95;5.30;;;;;;;;;;5096978;28;20100;-80
2021/08/21 12:17:25;;;;;;;8.50;5.63;;;;;;;;;;5096985;28;20036;-80
2021/08/21 12:19:51;;;;;;;14.18;5.25;;;;;;;;;;5097000;28;20528;-80
2021/08/21 12:22:18;;;;;;;4.93;4.43;;;;;;;;;;5097495;28;20473;-89
2021/08/21 12:24:52;;;;;;;7.53;5.13;;;;;;;;;;5098025;28;20551;-87
2021/08/21 12:27:25;;;;;;;5.32;4.53;;;;;;;;;;5097252;28;20028;-86
2021/08/21 12:30:07;;;;;;;5.90;5.40;;;;;;;;;;5097403;28;20485;-83
2021/08/21 12:32:33;;;;;;;12.68;5.72;;;;;;;;;;5097049;28;20024;-81
2021/08/21 12:35:16;;;;;;;6.38;5.50;;;;;;;;;;5097104;28;20042;-83
2021/08/21 12:37:43;;;;;;;19.70;5.85;;;;;;;;;;5096716;28;20362;-82
2021/08/21 12:40:11;;;;;;;6.55;5.82;;;;;;;;;;5096651;28;20055;-81
2021/08/21 12:42:37;;;;;;;6.47;5.97;;;;;;;;;;5097071;28;20489;-79
2021/08/21 12:45:23;;;;;;;12.88;6.82;;;;;;;;;;5096580;28;20046;-80
2021/08/21 12:47:49;;;;;;;72.80;11.65;;;;;;;;;;5096394;28;20028;-83
2021/08/21 12:50:15;;;;;;;29.33;7.32;;;;;;;;;;5096874;28;20035;-82
2021/08/21 12:52:44;;;;;;;20.25;10.32;;;;;;;;;;5089581;28;20070;-82
2021/08/21 12:55:10;;;;;;;9.75;7.22;;;;;;;;;;5095696;28;20051;-76
2021/08/21 12:57:38;;;;;;;8.50;7.20;;;;;;;;;;5094714;28;20082;-75
2021/08/21 13:00:13;;;;;;;18.60;7.47;;;;;;;;;;5094845;28;20040;-76
2021/08/21 13:02:40;;;;;;;9.73;6.15;;;;;;;;;;5098526;28;20069;-77
2021/08/21 13:05:06;;;;;;;16.80;6.57;;;;;;;;;;5097255;28;20028;-75
2021/08/21 13:07:52;;;;;;;7.72;6.47;;;;;;;;;;5097637;28;20038;-79
2021/08/21 13:10:19;;;;;;;11.02;7.35;;;;;;;;;;5077865;28;20122;-78
2021/08/21 13:12:45;;;;;;;8.82;7.30;;;;;;;;;;5077938;28;20046;-79
2021/08/21 13:15:12;;;;;;;8.20;6.88;;;;;;;;;;5078511;28;20036;-78
2021/08/21 13:17:38;;;;;;;15.15;6.90;;;;;;;;;;5077426;28;20029;-77
2021/08/21 13:20:04;;;;;;;8.93;7.35;;;;;;;;;;5096571;28;20031;-78
2021/08/21 13:22:31;;;;;;;6.70;6.10;;;;;;;;;;5099217;28;20031;-81
2021/08/21 13:24:57;;;;;;;8.32;7.13;;;;;;;;;;5096442;28;20024;-77
2021/08/21 13:27:23;;;;;;;6.55;5.95;;;;;;;;;;5099167;28;20036;-77
2021/08/21 13:29:49;;;;;;;7.75;6.95;;;;;;;;;;5097298;28;20057;-78
2021/08/21 13:32:15;;;;;;;6.85;5.60;;;;;;;;;;5098363;28;20805;-77
2021/08/21 13:34:41;;;;;;;8.55;7.85;;;;;;;;;;5098746;28;20453;-77
2021/08/21 13:37:07;;;;;;;15.40;6.13;;;;;;;;;;5097686;28;20067;-78
2021/08/21 13:39:34;;;;;;;8.60;7.30;;;;;;;;;;5097822;28;20028;-79
2021/08/21 13:42:00;;;;;;;7.90;7.20;;;;;;;;;;5098515;28;20020;-79
2021/08/21 13:44:26;;;;;;;8.88;7.22;;;;;;;;;;5097384;28;20381;-80
2021/08/21 13:46:52;;;;;;;8.43;7.65;;;;;;;;;;5094687;28;20024;-75
2021/08/21 13:49:18;;;;;;;8.77;7.15;;;;;;;;;;5092668;28;20035;-74
2021/08/21 13:51:45;;;;;;;7.57;6.65;;;;;;;;;;5094110;28;20024;-72
2021/08/21 13:54:11;;;;;;;6.95;6.18;;;;;;;;;;5092961;28;20040;-74
2021/08/21 13:56:37;;;;;;;7.53;6.72;;;;;;;;;;5090313;28;20048;-74
2021/08/21 13:59:03;;;;;;;7.78;7.07;;;;;;;;;;5088674;28;20024;-74
2021/08/21 14:01:29;;;;;;;6.82;6.22;;;;;;;;;;5089272;28;20020;-74
2021/08/21 14:03:55;;;;;;;7.78;7.03;;;;;;;;;;5092871;28;20020;-75
2021/08/21 14:06:22;;;;;;;98.30;13.30;;;;;;;;;;5092300;28;20027;-75
2021/08/21 14:08:49;;;;;;;24.73;7.63;;;;;;;;;;5091944;28;20028;-76
2021/08/21 14:11:15;;;;;;;34.33;8.48;;;;;;;;;;5093012;28;20127;-75
2021/08/21 14:13:41;;;;;;;20.38;8.27;;;;;;;;;;5093719;28;20078;-77
2021/08/21 14:16:07;;;;;;;13.95;7.22;;;;;;;;;;5093709;28;20024;-76
2021/08/21 14:18:33;;;;;;;8.60;6.70;;;;;;;;;;5090754;28;20120;-77
2021/08/21 14:20:59;;;;;;;23.48;6.68;;;;;;;;;;5093550;28;20024;-77
2021/08/21 14:23:25;;;;;;;11.43;7.45;;;;;;;;;;5093118;28;20028;-76
2021/08/21 14:25:51;;;;;;;13.90;6.38;;;;;;;;;;5092600;28;20024;-75
2021/08/21 14:28:18;;;;;;;18.05;6.30;;;;;;;;;;5090731;28;20024;-76
2021/08/21 14:30:44;;;;;;;13.88;6.78;;;;;;;;;;5092592;28;20093;-75
2021/08/21 14:33:10;;;;;;;10.45;6.63;;;;;;;;;;5091691;28;20457;-75
2021/08/21 14:35:36;;;;;;;7.70;5.70;;;;;;;;;;5092695;28;20107;-75
2021/08/21 14:38:03;;;;;;;9.13;7.05;;;;;;;;;;5090355;28;20512;-75
2021/08/21 14:40:29;;;;;;;7.07;6.38;;;;;;;;;;5092579;28;20035;-76